Time;durP1;ratioP1;P1;durP2;ratioP2;P2;SDS_P1;SDS_P2;PMS_P1;PMS_P2;Temp;Humidity;BMP_temperature;BMP_pressure;BME280_temperature;BME280_humidity;BME280_pressure;Samples;Min_cycle;Max_cycle;Signal;HPM_P1;HPM_P2
2021/09/27 00:01:26;;;;;;;7.90;5.47;;;17.70;99.90;;;;;;5035778;28;20177;-79
2021/09/27 00:03:55;;;;;;;6.53;4.37;;;17.60;99.90;;;;;;5034275;28;20667;-79
2021/09/27 00:06:21;;;;;;;8.63;5.80;;;17.50;99.90;;;;;;5035821;28;20427;-79
2021/09/27 00:08:47;;;;;;;7.73;5.77;;;17.60;99.90;;;;;;5035917;28;20425;-79
2021/09/27 00:11:20;;;;;;;7.50;5.40;;;17.70;99.90;;;;;;5034156;28;20467;-80
2021/09/27 00:13:54;;;;;;;8.50;5.40;;;17.60;99.90;;;;;;5034687;28;20177;-79
2021/09/27 00:16:20;;;;;;;6.43;4.87;;;17.70;99.90;;;;;;5034463;28;20508;-78
2021/09/27 00:18:46;;;;;;;7.23;5.13;;;17.60;99.90;;;;;;5034996;28;20515;-79
2021/09/27 00:21:21;;;;;;;9.17;6.50;;;17.60;99.90;;;;;;5036002;28;20411;-79
2021/09/27 00:23:47;;;;;;;7.10;5.93;;;17.70;99.90;;;;;;5035508;28;20169;-79
2021/09/27 00:26:13;;;;;;;8.10;5.80;;;17.50;99.90;;;;;;5035771;28;20960;-79
2021/09/27 00:28:39;;;;;;;6.53;5.10;;;17.50;99.90;;;;;;5035661;28;20410;-79
2021/09/27 00:31:08;;;;;;;9.10;6.00;;;17.60;99.90;;;;;;5034826;28;20414;-79
2021/09/27 00:33:34;;;;;;;8.73;5.87;;;17.60;99.90;;;;;;5034636;28;20421;-79
2021/09/27 00:36:00;;;;;;;8.97;5.80;;;17.60;99.90;;;;;;5033179;28;20445;-79
2021/09/27 00:38:26;;;;;;;8.30;6.13;;;17.60;99.90;;;;;;5034599;28;20200;-79
2021/09/27 00:40:59;;;;;;;6.90;5.87;;;17.60;99.90;;;;;;5033582;28;20908;-78
2021/09/27 00:43:26;;;;;;;6.60;5.50;;;17.50;99.90;;;;;;5032954;28;20890;-78
2021/09/27 00:45:59;;;;;;;7.00;4.90;;;17.50;99.90;;;;;;5031231;28;20574;-78
2021/09/27 00:48:25;;;;;;;7.23;5.60;;;17.50;99.90;;;;;;5032864;28;20414;-78
2021/09/27 00:50:56;;;;;;;7.83;6.00;;;17.30;99.90;;;;;;5032865;28;20419;-79
2021/09/27 00:53:26;;;;;;;5.93;4.73;;;17.30;99.90;;;;;;5032915;28;20409;-78
2021/09/27 00:55:54;;;;;;;8.27;5.80;;;17.30;99.90;;;;;;5032836;28;20804;-79
2021/09/27 00:58:21;;;;;;;7.03;6.03;;;17.10;99.90;;;;;;5033138;28;20490;-79
2021/09/27 01:00:48;;;;;;;19.60;7.00;;;17.10;99.90;;;;;;5033584;28;20413;-79
2021/09/27 01:03:14;;;;;;;7.30;6.20;;;17.10;99.90;;;;;;5033429;28;20406;-79
2021/09/27 01:05:50;;;;;;;7.07;5.80;;;17.30;99.90;;;;;;5034050;28;20432;-79
2021/09/27 01:08:32;;;;;;;7.70;5.87;;;17.20;99.90;;;;;;5037291;28;20438;-79
2021/09/27 01:11:23;;;;;;;8.70;6.73;;;17.10;99.90;;;;;;5035939;28;20490;-78
2021/09/27 01:14:00;;;;;;;7.50;5.30;;;17.00;99.90;;;;;;5038264;28;20405;-77
2021/09/27 01:16:53;;;;;;;9.43;6.73;;;17.00;99.90;;;;;;5037281;28;20431;-79
2021/09/27 01:19:52;;;;;;;6.83;5.23;;;17.00;99.90;;;;;;5017837;28;20656;-79
2021/09/27 01:23:04;;;;;;;8.77;6.10;;;17.00;99.90;;;;;;5028468;28;20397;-79
2021/09/27 01:25:54;;;;;;;8.33;6.70;;;17.00;99.90;;;;;;5039205;28;20942;-79
2021/09/27 01:28:39;;;;;;;9.13;5.67;;;16.90;99.90;;;;;;5039004;28;20403;-81
2021/09/27 01:31:24;;;;;;;7.97;6.80;;;16.90;99.90;;;;;;4988043;28;20495;-78
2021/09/27 01:33:58;;;;;;;8.57;6.17;;;16.90;99.90;;;;;;5039816;28;20428;-78
2021/09/27 01:36:44;;;;;;;9.30;5.80;;;16.90;99.90;;;;;;5034840;28;20998;-79
2021/09/27 01:39:19;;;;;;;8.60;5.70;;;16.90;99.90;;;;;;5034004;28;20609;-79
2021/09/27 01:41:59;;;;;;;9.00;6.20;;;16.80;99.90;;;;;;5036498;28;20420;-79
2021/09/27 01:44:45;;;;;;;7.53;5.40;;;16.80;99.90;;;;;;5037190;28;20411;-79
2021/09/27 01:47:19;;;;;;;9.40;6.47;;;16.90;99.90;;;;;;5036725;28;20464;-79
2021/09/27 01:49:58;;;;;;;8.07;6.10;;;16.80;99.90;;;;;;5036525;28;20510;-79
2021/09/27 01:52:36;;;;;;;8.80;5.97;;;16.90;99.90;;;;;;5036912;28;20409;-79
2021/09/27 01:55:08;;;;;;;8.77;6.00;;;17.00;99.90;;;;;;5036497;28;20458;-78
2021/09/27 01:57:41;;;;;;;8.30;5.97;;;17.00;99.90;;;;;;5036408;28;20516;-78
2021/09/27 02:00:37;;;;;;;7.50;6.00;;;17.10;99.90;;;;;;5036539;28;20480;-78
2021/09/27 02:03:44;;;;;;;7.87;6.00;;;17.10;99.90;;;;;;5030363;28;20421;-79
2021/09/27 02:06:29;;;;;;;10.20;7.27;;;17.00;99.90;;;;;;4991551;28;20437;-79
2021/09/27 02:08:58;;;;;;;8.60;5.83;;;17.20;99.90;;;;;;5036496;28;20441;-79
2021/09/27 02:11:24;;;;;;;8.27;5.90;;;17.30;99.90;;;;;;5036287;28;20572;-80
2021/09/27 02:14:27;;;;;;;6.90;5.67;;;17.30;99.90;;;;;;5036119;28;20453;-78
2021/09/27 02:17:24;;;;;;;7.73;5.80;;;17.30;99.90;;;;;;5036417;28;20207;-78
2021/09/27 02:20:04;;;;;;;8.77;5.63;;;17.30;99.90;;;;;;5036161;28;20457;-78
2021/09/27 02:22:36;;;;;;;11.57;7.13;;;17.30;99.90;;;;;;5036084;28;20402;-78
2021/09/27 02:25:26;;;;;;;7.90;6.20;;;17.30;99.90;;;;;;5034438;28;20514;-77
2021/09/27 02:27:52;;;;;;;8.83;5.93;;;17.40;99.90;;;;;;5035104;28;20417;-78
2021/09/27 02:30:27;;;;;;;7.53;5.33;;;17.50;99.90;;;;;;5035066;28;20418;-78
2021/09/27 02:33:22;;;;;;;9.27;6.50;;;17.60;99.90;;;;;;5035381;28;20413;-78
2021/09/27 02:36:01;;;;;;;6.93;6.03;;;17.60;99.90;;;;;;5034311;28;20438;-78
2021/09/27 02:38:53;;;;;;;11.83;7.47;;;17.70;99.90;;;;;;5034674;28;20975;-78
2021/09/27 02:41:42;;;;;;;6.60;5.40;;;17.70;99.90;;;;;;5035023;28;20429;-78
2021/09/27 02:44:08;;;;;;;8.13;5.80;;;17.70;99.90;;;;;;5035386;28;20408;-78
2021/09/27 02:46:41;;;;;;;7.30;5.30;;;17.70;99.90;;;;;;5035336;28;20785;-78
2021/09/27 02:49:11;;;;;;;8.07;5.80;;;17.60;99.90;;;;;;5033520;28;20186;-78
2021/09/27 02:51:43;;;;;;;6.80;5.83;;;17.60;99.90;;;;;;5033454;28;20428;-77
2021/09/27 02:54:11;;;;;;;10.83;5.33;;;17.50;99.90;;;;;;5020176;28;20512;-77
2021/09/27 02:57:14;;;;;;;9.87;5.70;;;17.60;99.90;;;;;;5031734;28;20448;-77
2021/09/27 02:59:50;;;;;;;6.93;5.90;;;17.60;99.90;;;;;;5033420;28;20462;-77
2021/09/27 03:02:20;;;;;;;13.53;5.43;;;17.60;99.90;;;;;;5015036;28;20418;-77
2021/09/27 03:04:56;;;;;;;7.80;5.77;;;17.60;99.90;;;;;;5013617;28;20961;-76
2021/09/27 03:07:44;;;;;;;9.40;6.40;;;17.60;99.90;;;;;;5011863;28;20801;-76
2021/09/27 03:10:28;;;;;;;7.60;5.50;;;17.70;99.90;;;;;;5013496;28;20434;-76
2021/09/27 03:13:34;;;;;;;8.60;6.10;;;17.70;99.90;;;;;;5013474;28;20766;-77
2021/09/27 03:16:10;;;;;;;5.60;4.93;;;17.50;99.90;;;;;;4991552;28;20450;-77
2021/09/27 03:18:57;;;;;;;7.80;5.60;;;17.50;99.90;;;;;;5014075;28;20551;-77
2021/09/27 03:21:47;;;;;;;9.97;6.73;;;17.50;99.90;;;;;;5014853;28;20490;-78
2021/09/27 03:24:38;;;;;;;7.20;5.57;;;17.50;99.90;;;;;;5015949;28;20401;-77
2021/09/27 03:27:25;;;;;;;7.27;5.50;;;17.50;99.90;;;;;;5021022;28;20503;-77
2021/09/27 03:29:54;;;;;;;8.33;5.60;;;17.50;99.90;;;;;;5019112;28;20529;-76
2021/09/27 03:32:34;;;;;;;8.77;6.60;;;17.50;99.90;;;;;;5014927;28;20453;-77
2021/09/27 03:35:20;;;;;;;5.90;5.23;;;17.50;99.90;;;;;;5012682;28;20423;-76
2021/09/27 03:38:09;;;;;;;8.57;5.77;;;17.60;99.90;;;;;;5012952;28;20422;-77
2021/09/27 03:40:59;;;;;;;8.20;6.40;;;17.60;99.90;;;;;;5012986;28;20419;-77
2021/09/27 03:44:01;;;;;;;7.97;6.30;;;17.60;99.90;;;;;;5013019;28;20829;-77
2021/09/27 03:46:40;;;;;;;8.53;6.23;;;17.60;99.90;;;;;;5012730;28;20434;-77
2021/09/27 03:49:28;;;;;;;10.07;6.63;;;17.60;99.90;;;;;;5013271;28;20396;-78
2021/09/27 03:52:02;;;;;;;7.03;5.50;;;17.70;99.90;;;;;;5013601;28;20440;-77
2021/09/27 03:54:34;;;;;;;9.07;6.50;;;17.70;99.90;;;;;;5012553;28;20412;-77
2021/09/27 03:57:11;;;;;;;9.30;5.70;;;17.60;99.90;;;;;;5012940;28;20435;-77
2021/09/27 03:59:53;;;;;;;9.13;7.10;;;17.60;99.90;;;;;;5012925;28;20443;-78
2021/09/27 04:02:30;;;;;;;10.70;6.53;;;17.60;99.90;;;;;;5011613;28;20419;-77
2021/09/27 04:05:33;;;;;;;8.07;5.93;;;17.60;99.90;;;;;;5012624;28;20416;-77
2021/09/27 04:08:10;;;;;;;7.23;5.60;;;17.70;99.90;;;;;;5012784;28;20430;-77
2021/09/27 04:11:04;;;;;;;7.97;5.67;;;17.70;99.90;;;;;;5011375;28;20917;-76
2021/09/27 04:13:44;;;;;;;6.40;5.10;;;17.70;99.90;;;;;;5012639;28;20479;-76
2021/09/27 04:16:26;;;;;;;9.03;6.43;;;17.70;99.90;;;;;;5012280;28;20435;-77
2021/09/27 04:19:10;;;;;;;6.47;5.43;;;17.70;99.90;;;;;;5012686;28;20542;-77
2021/09/27 04:21:45;;;;;;;8.70;6.43;;;17.70;99.90;;;;;;5012662;28;20921;-79
2021/09/27 04:24:44;;;;;;;10.47;6.77;;;17.70;99.90;;;;;;5011492;28;20425;-78
2021/09/27 04:27:26;;;;;;;6.87;5.63;;;17.70;99.90;;;;;;5011054;28;20448;-77
2021/09/27 04:30:01;;;;;;;8.57;6.53;;;17.70;99.90;;;;;;5012384;28;20471;-77
2021/09/27 04:32:40;;;;;;;8.10;6.27;;;17.70;99.90;;;;;;5012473;28;20925;-77
2021/09/27 04:35:18;;;;;;;8.30;6.00;;;17.70;99.90;;;;;;5010785;28;20440;-77
2021/09/27 04:37:45;;;;;;;10.20;6.17;;;17.60;99.90;;;;;;5012021;28;20911;-77
2021/09/27 04:40:13;;;;;;;11.83;6.73;;;17.60;99.90;;;;;;5010898;28;20527;-77
2021/09/27 04:42:56;;;;;;;10.77;6.60;;;17.60;99.90;;;;;;5012688;28;20413;-77
2021/09/27 04:45:41;;;;;;;7.87;6.30;;;17.70;99.90;;;;;;5016391;28;20490;-77
2021/09/27 04:48:12;;;;;;;9.53;6.23;;;17.70;99.90;;;;;;5016516;28;20831;-77
2021/09/27 04:50:56;;;;;;;8.67;6.60;;;17.60;99.90;;;;;;5016640;28;20408;-77
2021/09/27 04:53:40;;;;;;;6.30;5.40;;;17.70;99.90;;;;;;5015989;28;20404;-76
2021/09/27 04:56:43;;;;;;;8.83;5.90;;;17.70;99.90;;;;;;5016917;28;20957;-77
2021/09/27 04:59:44;;;;;;;9.57;6.47;;;17.60;99.90;;;;;;5014357;28;20552;-77
2021/09/27 05:02:29;;;;;;;8.80;5.70;;;17.60;99.90;;;;;;5015882;28;20725;-77
2021/09/27 05:05:06;;;;;;;7.53;5.73;;;17.60;99.90;;;;;;5015932;28;20413;-76
2021/09/27 05:07:44;;;;;;;10.03;6.60;;;17.70;99.90;;;;;;5015467;28;20430;-77
2021/09/27 05:10:47;;;;;;;7.60;6.17;;;17.70;99.90;;;;;;5015579;28;20410;-77
2021/09/27 05:13:31;;;;;;;7.03;6.00;;;17.70;99.90;;;;;;5015310;28;20408;-77
2021/09/27 05:16:16;;;;;;;9.30;6.50;;;17.70;99.90;;;;;;5014196;28;20435;-77
2021/09/27 05:19:23;;;;;;;8.90;6.47;;;17.70;99.90;;;;;;5014110;28;20515;-77
2021/09/27 05:22:05;;;;;;;7.33;5.90;;;17.70;99.90;;;;;;5015574;28;20829;-76
2021/09/27 05:24:31;;;;;;;10.30;7.23;;;17.70;99.90;;;;;;5015075;28;20406;-76
2021/09/27 05:27:41;;;;;;;9.77;5.97;;;17.60;99.90;;;;;;5015099;28;20488;-75
2021/09/27 05:30:25;;;;;;;8.70;6.10;;;17.70;99.90;;;;;;4984474;28;20421;-75
2021/09/27 05:33:16;;;;;;;10.30;6.30;;;17.70;99.90;;;;;;5015127;28;20899;-76
2021/09/27 05:36:16;;;;;;;8.70;6.00;;;17.80;99.90;;;;;;5014870;28;20419;-77
2021/09/27 05:38:57;;;;;;;7.77;6.13;;;17.80;99.90;;;;;;5014819;28;20857;-75
2021/09/27 05:41:57;;;;;;;8.30;6.40;;;17.80;99.90;;;;;;5030152;28;20763;-77
2021/09/27 05:44:59;;;;;;;6.67;5.67;;;17.80;99.90;;;;;;5014760;28;20405;-77
2021/09/27 05:47:36;;;;;;;8.13;6.03;;;17.90;99.90;;;;;;5022396;28;20466;-77
2021/09/27 05:50:12;;;;;;;9.70;6.90;;;17.90;99.90;;;;;;5035020;28;20418;-77
2021/09/27 05:53:08;;;;;;;9.43;7.00;;;17.90;99.90;;;;;;5035661;28;20389;-77
2021/09/27 05:55:40;;;;;;;9.60;7.20;;;17.90;99.90;;;;;;5019038;28;20445;-78
2021/09/27 05:58:16;;;;;;;10.17;7.73;;;17.90;99.90;;;;;;5032790;28;20428;-77
2021/09/27 06:01:09;;;;;;;10.70;7.57;;;17.90;99.90;;;;;;5034410;28;20415;-77
2021/09/27 06:03:48;;;;;;;10.40;7.07;;;17.90;99.90;;;;;;5032941;28;20415;-77
2021/09/27 06:06:50;;;;;;;8.73;6.53;;;18.00;99.90;;;;;;5033264;28;20462;-78
2021/09/27 06:09:21;;;;;;;8.90;6.80;;;18.00;99.90;;;;;;5034916;28;20481;-78
2021/09/27 06:12:02;;;;;;;8.00;6.47;;;18.00;99.90;;;;;;5035314;28;20410;-78
2021/09/27 06:14:30;;;;;;;8.30;6.73;;;18.00;99.90;;;;;;5034337;28;20453;-78
2021/09/27 06:17:22;;;;;;;7.77;6.10;;;18.00;99.90;;;;;;5033975;28;20422;-77
2021/09/27 06:20:14;;;;;;;9.10;6.03;;;18.00;99.90;;;;;;4996247;28;20558;-79
2021/09/27 06:23:12;;;;;;;10.60;6.17;;;18.20;99.90;;;;;;5036023;28;20408;-78
2021/09/27 06:26:00;;;;;;;7.33;5.90;;;18.30;99.90;;;;;;5031022;28;20440;-78
2021/09/27 06:28:37;;;;;;;7.70;6.20;;;18.40;99.90;;;;;;5027895;28;20423;-79
2021/09/27 06:31:09;;;;;;;9.57;6.07;;;18.40;99.90;;;;;;5034852;28;20911;-76
2021/09/27 06:33:55;;;;;;;10.47;6.93;;;18.50;99.90;;;;;;5032979;28;20419;-77
2021/09/27 06:36:24;;;;;;;9.27;6.63;;;18.60;99.90;;;;;;5033294;28;20439;-78
2021/09/27 06:38:58;;;;;;;10.83;7.23;;;18.60;99.90;;;;;;5034037;28;20462;-78
2021/09/27 06:41:26;;;;;;;12.30;6.77;;;18.70;99.90;;;;;;5033839;28;20534;-78
2021/09/27 06:43:52;;;;;;;7.63;6.07;;;18.70;99.90;;;;;;5028431;28;20424;-79
2021/09/27 06:46:19;;;;;;;8.10;6.17;;;18.60;99.90;;;;;;5016821;28;20472;-77
2021/09/27 06:48:46;;;;;;;9.87;7.57;;;18.70;99.90;;;;;;5018256;28;20439;-78
2021/09/27 06:51:12;;;;;;;8.53;6.50;;;18.70;99.90;;;;;;5033539;28;20431;-78
2021/09/27 06:53:40;;;;;;;9.53;7.20;;;18.40;99.90;;;;;;5033695;28;20416;-78
2021/09/27 06:56:06;;;;;;;8.47;6.97;;;18.20;99.90;;;;;;5034369;28;20443;-78
2021/09/27 06:58:32;;;;;;;9.10;7.00;;;18.50;99.90;;;;;;5033391;28;20412;-78
2021/09/27 07:00:58;;;;;;;9.57;7.07;;;18.20;99.90;;;;;;5033207;28;20207;-78
2021/09/27 07:03:24;;;;;;;11.40;8.07;;;18.40;99.90;;;;;;5033101;28;20400;-77
2021/09/27 07:05:50;;;;;;;10.90;7.57;;;18.50;99.90;;;;;;5033131;28;20435;-77
2021/09/27 07:08:20;;;;;;;8.63;7.27;;;18.50;99.90;;;;;;5033311;28;20307;-77
2021/09/27 07:10:47;;;;;;;9.60;7.33;;;18.30;99.90;;;;;;5033294;28;20428;-78
2021/09/27 07:13:14;;;;;;;8.73;6.60;;;18.40;99.90;;;;;;5027588;28;20443;-78
2021/09/27 07:15:41;;;;;;;8.07;6.60;;;18.60;99.90;;;;;;5031940;28;20444;-78
2021/09/27 07:18:06;;;;;;;12.17;7.43;;;18.70;99.90;;;;;;5034162;28;20408;-77
2021/09/27 07:20:32;;;;;;;11.87;6.90;;;18.70;99.90;;;;;;5047286;28;20803;-77
2021/09/27 07:22:58;;;;;;;9.63;6.63;;;18.80;99.90;;;;;;5033107;28;20227;-77
2021/09/27 07:25:26;;;;;;;16.10;8.70;;;18.70;99.90;;;;;;5019736;28;20703;-78
2021/09/27 07:27:52;;;;;;;11.90;7.80;;;18.90;99.90;;;;;;5035773;28;20417;-78
2021/09/27 07:30:19;;;;;;;9.10;6.33;;;19.00;99.90;;;;;;5033481;28;20848;-78
2021/09/27 07:32:46;;;;;;;7.63;6.50;;;19.00;99.90;;;;;;5019691;28;20844;-78
2021/09/27 07:35:15;;;;;;;8.70;7.40;;;19.10;99.90;;;;;;5014064;28;20451;-77
2021/09/27 07:37:40;;;;;;;13.93;6.73;;;19.20;99.90;;;;;;5032207;28;20420;-77
2021/09/27 07:40:13;;;;;;;10.33;7.20;;;19.20;99.90;;;;;;5032269;28;20456;-77
2021/09/27 07:42:39;;;;;;;16.07;6.17;;;19.20;99.90;;;;;;5031678;28;20526;-77
2021/09/27 07:45:08;;;;;;;13.53;7.70;;;19.10;99.90;;;;;;5031772;28;20458;-77
2021/09/27 07:47:33;;;;;;;10.10;6.80;;;18.90;99.90;;;;;;5030586;28;20194;-76
2021/09/27 07:49:59;;;;;;;7.40;5.70;;;18.90;99.90;;;;;;5031977;28;20446;-77
2021/09/27 07:52:24;;;;;;;8.80;6.33;;;19.10;99.90;;;;;;5023003;28;20192;-76
2021/09/27 07:54:51;;;;;;;8.10;6.37;;;19.20;99.90;;;;;;5030005;28;20277;-77
2021/09/27 07:57:17;;;;;;;9.00;6.17;;;19.20;99.90;;;;;;5029743;28;20568;-79
2021/09/27 07:59:43;;;;;;;7.47;6.30;;;19.10;99.90;;;;;;5024466;28;20529;-77
2021/09/27 08:02:08;;;;;;;9.03;6.10;;;19.00;99.90;;;;;;5029807;28;20798;-78
2021/09/27 08:04:35;;;;;;;16.23;6.20;;;19.10;99.90;;;;;;5028805;28;20642;-78
2021/09/27 08:07:01;;;;;;;8.47;6.50;;;19.00;99.90;;;;;;5031092;28;20223;-78
2021/09/27 08:09:27;;;;;;;7.40;6.33;;;18.80;99.90;;;;;;5032526;28;20858;-78
2021/09/27 08:11:53;;;;;;;7.73;6.20;;;18.80;99.90;;;;;;5033280;28;20953;-78
2021/09/27 08:14:18;;;;;;;10.00;7.17;;;18.90;99.90;;;;;;5030821;28;20185;-78
2021/09/27 08:16:44;;;;;;;7.60;6.07;;;19.10;99.90;;;;;;5029335;28;20193;-78
2021/09/27 08:19:10;;;;;;;8.13;5.77;;;19.20;99.90;;;;;;5028752;28;20698;-78
2021/09/27 08:21:35;;;;;;;8.90;6.90;;;19.30;99.90;;;;;;5030976;28;20803;-78
2021/09/27 08:24:01;;;;;;;7.63;5.83;;;19.40;99.90;;;;;;5028616;28;20183;-78
2021/09/27 08:26:27;;;;;;;7.90;6.53;;;19.40;99.90;;;;;;5030928;28;20197;-77
2021/09/27 08:28:52;;;;;;;10.17;7.17;;;19.40;99.90;;;;;;5034636;28;20190;-77
2021/09/27 08:31:22;;;;;;;8.40;6.67;;;19.40;99.90;;;;;;5031203;28;20181;-78
2021/09/27 08:33:53;;;;;;;8.00;6.27;;;19.30;99.90;;;;;;5031030;28;20185;-78
2021/09/27 08:36:22;;;;;;;12.23;6.13;;;19.30;99.90;;;;;;5031563;28;20953;-78
2021/09/27 08:38:48;;;;;;;9.20;6.30;;;19.30;99.90;;;;;;5029307;28;20469;-78
2021/09/27 08:41:32;;;;;;;9.00;6.57;;;19.30;99.90;;;;;;5025592;28;20946;-78
2021/09/27 08:44:20;;;;;;;10.37;6.10;;;19.30;99.90;;;;;;5021766;28;20949;-76
2021/09/27 08:46:52;;;;;;;7.70;6.00;;;19.40;99.90;;;;;;5030386;28;20458;-77
2021/09/27 08:49:33;;;;;;;9.27;6.80;;;19.50;99.90;;;;;;5031714;28;20448;-77
2021/09/27 08:51:59;;;;;;;9.40;6.10;;;19.60;99.90;;;;;;5017614;28;20420;-78
2021/09/27 08:54:29;;;;;;;7.80;6.10;;;19.70;99.90;;;;;;5011379;28;20901;-76
2021/09/27 08:57:12;;;;;;;8.70;7.47;;;19.70;99.90;;;;;;5021714;28;20518;-77
2021/09/27 09:00:12;;;;;;;7.30;6.37;;;19.80;99.90;;;;;;5031421;28;20462;-77
2021/09/27 09:02:59;;;;;;;8.60;7.30;;;19.70;99.90;;;;;;5028541;28;20946;-77
2021/09/27 09:05:50;;;;;;;9.47;6.50;;;19.70;99.90;;;;;;5032540;28;20429;-77
2021/09/27 09:08:24;;;;;;;7.87;5.43;;;19.70;99.90;;;;;;5032939;28;20426;-76
2021/09/27 09:11:03;;;;;;;12.57;6.60;;;19.40;99.90;;;;;;5029549;28;20458;-77
2021/09/27 09:13:40;;;;;;;7.60;5.90;;;19.50;99.90;;;;;;5012237;28;20839;-77
2021/09/27 09:16:08;;;;;;;12.93;9.70;;;19.50;99.90;;;;;;5011806;28;20439;-78
2021/09/27 09:18:45;;;;;;;13.57;7.40;;;19.50;99.90;;;;;;5012050;28;20423;-79
2021/09/27 09:21:19;;;;;;;10.50;7.03;;;19.50;99.90;;;;;;5012278;28;20855;-78
2021/09/27 09:23:51;;;;;;;9.63;7.27;;;19.50;99.90;;;;;;5028431;28;20425;-79
2021/09/27 09:26:25;;;;;;;8.37;6.70;;;19.50;99.90;;;;;;5031523;28;20453;-78
2021/09/27 09:28:53;;;;;;;9.70;7.60;;;19.50;99.90;;;;;;5032353;28;20619;-77
2021/09/27 09:31:23;;;;;;;12.83;7.20;;;19.60;99.90;;;;;;5033433;28;21050;-78
2021/09/27 09:34:00;;;;;;;11.43;8.40;;;19.40;99.90;;;;;;5027665;28;20431;-78
2021/09/27 09:36:31;;;;;;;8.47;6.23;;;19.60;99.90;;;;;;5016632;28;20967;-79
2021/09/27 09:38:57;;;;;;;8.57;6.70;;;19.60;99.90;;;;;;5016216;28;20960;-78
2021/09/27 09:41:52;;;;;;;10.80;7.17;;;19.70;99.90;;;;;;5016273;28;20510;-77
2021/09/27 09:44:32;;;;;;;8.80;6.40;;;19.80;99.90;;;;;;5014935;28;20467;-78
2021/09/27 09:47:05;;;;;;;8.77;7.10;;;19.90;99.90;;;;;;5019567;28;20500;-78
2021/09/27 09:49:50;;;;;;;7.83;6.10;;;19.90;99.90;;;;;;5019652;28;20508;-78
2021/09/27 09:52:32;;;;;;;9.43;7.33;;;20.00;99.90;;;;;;5014938;28;20426;-79
2021/09/27 09:54:59;;;;;;;9.87;6.47;;;20.00;99.90;;;;;;5028296;28;20418;-78
2021/09/27 09:57:27;;;;;;;9.63;6.40;;;19.70;99.90;;;;;;5033778;28;20426;-78
2021/09/27 10:00:02;;;;;;;8.40;5.70;;;19.60;99.90;;;;;;5035362;28;20449;-79
2021/09/27 10:02:29;;;;;;;7.23;6.03;;;19.70;99.90;;;;;;5031819;28;20454;-78
2021/09/27 10:05:08;;;;;;;8.37;6.73;;;19.80;99.90;;;;;;5027070;28;20792;-78
2021/09/27 10:07:55;;;;;;;9.50;6.97;;;19.90;99.90;;;;;;5023872;28;20430;-78
2021/09/27 10:10:56;;;;;;;7.77;5.73;;;20.00;99.90;;;;;;5021623;28;20444;-78
2021/09/27 10:13:38;;;;;;;10.67;6.80;;;20.00;99.90;;;;;;5008846;28;20439;-78
2021/09/27 10:16:17;;;;;;;8.90;6.03;;;20.10;99.90;;;;;;5031759;28;20474;-79
2021/09/27 10:18:46;;;;;;;7.97;6.70;;;20.10;99.90;;;;;;5032768;28;21589;-78
2021/09/27 10:21:25;;;;;;;8.30;6.73;;;20.20;99.90;;;;;;5031254;28;20534;-78
2021/09/27 10:23:57;;;;;;;9.43;6.10;;;20.20;99.90;;;;;;5046928;28;20427;-78
2021/09/27 10:26:39;;;;;;;8.90;6.90;;;20.20;99.90;;;;;;5028345;28;20446;-78
2021/09/27 10:29:16;;;;;;;7.50;6.30;;;20.30;99.90;;;;;;5028774;28;20462;-78
2021/09/27 10:32:06;;;;;;;7.93;6.17;;;20.50;99.90;;;;;;5030798;28;20439;-77
2021/09/27 10:34:33;;;;;;;9.63;5.70;;;20.50;99.90;;;;;;5029994;28;20431;-76
2021/09/27 10:37:21;;;;;;;8.13;6.77;;;20.60;99.90;;;;;;5030207;28;20450;-78
2021/09/27 10:39:51;;;;;;;6.33;5.50;;;20.60;99.90;;;;;;5031756;28;20538;-78
2021/09/27 10:42:28;;;;;;;7.33;6.10;;;20.70;99.90;;;;;;5029729;28;20435;-76
2021/09/27 10:44:54;;;;;;;9.93;6.00;;;20.70;99.90;;;;;;5032366;28;20778;-77
2021/09/27 10:47:28;;;;;;;9.40;6.33;;;20.70;99.90;;;;;;5031956;28;20420;-78
2021/09/27 10:50:12;;;;;;;9.47;6.40;;;20.70;99.90;;;;;;5027360;28;20428;-78
2021/09/27 10:52:50;;;;;;;8.80;6.67;;;20.90;99.90;;;;;;5028300;28;20727;-76
2021/09/27 10:55:57;;;;;;;7.90;5.70;;;21.00;99.90;;;;;;5028404;28;20913;-77
2021/09/27 10:58:33;;;;;;;9.17;6.60;;;21.00;99.90;;;;;;5027417;28;20945;-76
2021/09/27 11:00:59;;;;;;;8.57;6.30;;;20.90;99.90;;;;;;5032451;28;20422;-76
2021/09/27 11:03:31;;;;;;;13.17;8.50;;;21.10;99.90;;;;;;5028463;28;20466;-76
2021/09/27 11:06:18;;;;;;;14.40;7.87;;;21.20;99.90;;;;;;5030888;28;20189;-77
2021/09/27 11:09:04;;;;;;;10.67;6.73;;;21.30;99.90;;;;;;5030444;28;20432;-78
2021/09/27 11:11:29;;;;;;;9.37;6.60;;;21.30;99.90;;;;;;5028392;28;20843;-77
2021/09/27 11:14:34;;;;;;;10.10;7.17;;;21.30;99.90;;;;;;5026909;28;20520;-77
2021/09/27 11:17:32;;;;;;;9.67;6.67;;;21.50;99.90;;;;;;5014349;28;20201;-75
2021/09/27 11:20:05;;;;;;;16.60;8.53;;;21.40;99.90;;;;;;5027447;28;20467;-77
2021/09/27 11:22:38;;;;;;;10.20;7.50;;;21.50;99.90;;;;;;5030432;28;20992;-76
2021/09/27 11:25:21;;;;;;;9.27;7.30;;;21.70;99.90;;;;;;5028728;28;20552;-76
2021/09/27 11:28:08;;;;;;;8.37;6.93;;;21.60;99.90;;;;;;5030360;28;20537;-76
2021/09/27 11:31:03;;;;;;;9.30;7.17;;;21.40;99.90;;;;;;5029963;28;20416;-77
2021/09/27 11:33:32;;;;;;;9.30;7.47;;;21.40;99.90;;;;;;5026890;28;20876;-77
2021/09/27 11:36:05;;;;;;;8.40;6.67;;;21.30;99.90;;;;;;5029692;28;20447;-76
2021/09/27 11:38:39;;;;;;;9.47;7.17;;;21.30;99.90;;;;;;5030357;28;20423;-77
2021/09/27 11:41:10;;;;;;;7.30;6.27;;;21.30;99.90;;;;;;5028873;28;20427;-77
2021/09/27 11:43:58;;;;;;;9.67;7.07;;;21.30;99.90;;;;;;5030262;28;20456;-75
2021/09/27 11:46:46;;;;;;;9.17;6.80;;;21.20;99.90;;;;;;5026235;28;20431;-77
2021/09/27 11:49:19;;;;;;;10.63;7.07;;;21.10;99.90;;;;;;5030717;28;20834;-76
2021/09/27 11:52:06;;;;;;;23.70;7.80;;;21.10;99.90;;;;;;5029826;28;20490;-77
2021/09/27 11:54:51;;;;;;;9.13;6.73;;;21.20;99.90;;;;;;5029326;28;20937;-78
2021/09/27 11:57:40;;;;;;;7.60;6.17;;;21.20;99.90;;;;;;5029632;28;20443;-78
2021/09/27 12:00:11;;;;;;;11.00;7.80;;;21.20;99.90;;;;;;5029837;28;20495;-76
2021/09/27 12:02:50;;;;;;;9.83;6.80;;;21.30;99.90;;;;;;5030517;28;20478;-76
2021/09/27 12:05:36;;;;;;;6.97;6.27;;;21.30;99.90;;;;;;5028355;28;20966;-77
2021/09/27 12:08:07;;;;;;;5.87;4.70;;;21.40;99.90;;;;;;5017091;28;20432;-77
2021/09/27 12:10:41;;;;;;;6.87;6.17;;;21.40;99.90;;;;;;5012997;28;20991;-76
2021/09/27 12:13:11;;;;;;;9.37;6.50;;;21.30;99.90;;;;;;5030348;28;20953;-76
2021/09/27 12:15:44;;;;;;;8.03;6.70;;;21.40;99.90;;;;;;5032832;28;20431;-77
2021/09/27 12:18:35;;;;;;;10.23;7.13;;;21.40;99.90;;;;;;5032701;28;20428;-76
2021/09/27 12:21:05;;;;;;;7.93;6.07;;;21.50;99.90;;;;;;5027562;28;20456;-77
2021/09/27 12:23:41;;;;;;;8.73;6.50;;;21.60;99.90;;;;;;5028588;28;20454;-76
2021/09/27 12:26:07;;;;;;;10.00;6.63;;;21.70;99.90;;;;;;5028651;28;20436;-76
2021/09/27 12:28:32;;;;;;;7.40;6.30;;;21.70;99.90;;;;;;5028053;28;20424;-77
2021/09/27 12:31:02;;;;;;;7.23;6.07;;;21.70;99.90;;;;;;5030126;28;20190;-76
2021/09/27 12:33:29;;;;;;;7.50;6.10;;;21.80;99.90;;;;;;5030062;28;20173;-77
2021/09/27 12:36:18;;;;;;;8.97;6.30;;;21.80;99.90;;;;;;5030415;28;20895;-76
2021/09/27 12:38:50;;;;;;;7.90;6.37;;;21.80;99.90;;;;;;5032213;28;20420;-77
2021/09/27 12:41:21;;;;;;;7.77;6.00;;;21.80;99.90;;;;;;5024288;28;20435;-76
2021/09/27 12:43:48;;;;;;;15.53;5.87;;;21.80;99.90;;;;;;5027289;28;20443;-77
2021/09/27 12:46:23;;;;;;;7.93;6.83;;;21.80;99.90;;;;;;5028417;28;21748;-77
2021/09/27 12:49:05;;;;;;;8.43;5.87;;;21.90;99.90;;;;;;5026161;28;20434;-76
2021/09/27 12:51:40;;;;;;;9.30;6.37;;;21.70;99.90;;;;;;5029075;28;20930;-77
2021/09/27 12:54:23;;;;;;;7.70;6.40;;;21.80;99.90;;;;;;5029629;28;20465;-77
2021/09/27 12:56:50;;;;;;;8.73;6.57;;;21.80;99.90;;;;;;5029079;28;20451;-78
2021/09/27 12:59:20;;;;;;;8.87;6.73;;;21.70;99.90;;;;;;5029907;28;20971;-78
2021/09/27 13:01:51;;;;;;;9.27;7.43;;;21.70;99.90;;;;;;5031519;28;20435;-76
2021/09/27 13:04:28;;;;;;;11.60;7.60;;;21.70;99.90;;;;;;5031460;28;20427;-77
2021/09/27 13:07:06;;;;;;;8.30;6.50;;;21.70;99.90;;;;;;5034289;28;20424;-77
2021/09/27 13:09:37;;;;;;;11.33;7.03;;;21.70;99.90;;;;;;5033935;28;20922;-77
2021/09/27 13:12:22;;;;;;;8.30;6.60;;;21.70;99.90;;;;;;5034744;28;20408;-78
2021/09/27 13:15:02;;;;;;;9.30;6.93;;;21.70;99.90;;;;;;5034183;28;20423;-77
2021/09/27 13:17:30;;;;;;;15.90;8.00;;;21.70;99.90;;;;;;5034531;28;20884;-77
2021/09/27 13:19:58;;;;;;;8.77;6.93;;;21.70;99.90;;;;;;5032923;28;20475;-78
2021/09/27 13:22:42;;;;;;;7.27;6.20;;;21.70;99.90;;;;;;5034983;28;20431;-78
2021/09/27 13:25:31;;;;;;;9.73;7.30;;;21.70;99.90;;;;;;5034907;28;20435;-78
2021/09/27 13:28:13;;;;;;;8.20;6.80;;;21.60;99.90;;;;;;5036004;28;20419;-78
2021/09/27 13:30:39;;;;;;;8.93;7.30;;;21.50;99.90;;;;;;5034374;28;20515;-78
2021/09/27 13:33:30;;;;;;;12.87;7.50;;;21.60;99.90;;;;;;5035158;28;20419;-78
2021/09/27 13:35:59;;;;;;;12.33;7.70;;;21.70;99.90;;;;;;5034293;28;20470;-79
2021/09/27 13:38:52;;;;;;;8.63;6.63;;;21.60;99.90;;;;;;5035203;28;20477;-78